sensor_id;sensor_type;location;lat;lon;timestamp;P1;durP1;ratioP1;P2;durP2;ratioP2
65535;SDS011;52145;49.342;9.116;2022-10-16T00:00:56;10.70;;;2.67;;
65535;SDS011;52145;49.342;9.116;2022-10-16T00:03:22;6.40;;;1.90;;
65535;SDS011;52145;49.342;9.116;2022-10-16T00:05:48;3.75;;;2.20;;
65535;SDS011;52145;49.342;9.116;2022-10-16T00:08:13;4.53;;;1.70;;
65535;SDS011;52145;49.342;9.116;2022-10-16T00:10:39;5.25;;;1.85;;
65535;SDS011;52145;49.342;9.116;2022-10-16T00:13:05;5.55;;;1.70;;
65535;SDS011;52145;49.342;9.116;2022-10-16T10:33:08;4.78;;;1.60;;
65535;SDS011;52145;49.342;9.116;2022-10-16T10:38:39;3.33;;;1.50;;
65535;SDS011;52145;49.342;9.116;2022-10-16T10:47:16;5.38;;;1.88;;
65535;SDS011;52145;49.342;9.116;2022-10-16T10:55:03;2.78;;;1.27;;
65535;SDS011;52145;49.342;9.116;2022-10-16T10:58:10;6.90;;;1.50;;
65535;SDS011;52145;49.342;9.116;2022-10-16T11:06:20;1.95;;;1.20;;
65535;SDS011;52145;49.342;9.116;2022-10-16T11:11:39;2.97;;;1.42;;
65535;SDS011;52145;49.342;9.116;2022-10-16T11:14:23;2.63;;;1.40;;
65535;SDS011;52145;49.342;9.116;2022-10-16T11:17:12;5.35;;;1.40;;
65535;SDS011;52145;49.342;9.116;2022-10-16T11:20:05;6.80;;;1.38;;
65535;SDS011;52145;49.342;9.116;2022-10-16T11:30:05;3.30;;;1.13;;
65535;SDS011;52145;49.342;9.116;2022-10-16T11:41:10;4.63;;;1.45;;
65535;SDS011;52145;49.342;9.116;2022-10-16T11:46:58;4.38;;;1.15;;
65535;SDS011;52145;49.342;9.116;2022-10-16T11:49:30;1.48;;;1.23;;
65535;SDS011;52145;49.342;9.116;2022-10-16T11:54:41;3.10;;;1.05;;
65535;SDS011;52145;49.342;9.116;2022-10-16T11:57:22;5.57;;;1.48;;
65535;SDS011;52145;49.342;9.116;2022-10-16T12:02:40;1.83;;;0.98;;
65535;SDS011;52145;49.342;9.116;2022-10-16T12:05:29;7.18;;;1.20;;
65535;SDS011;52145;49.342;9.116;2022-10-16T12:08:02;3.13;;;1.15;;
65535;SDS011;52145;49.342;9.116;2022-10-16T12:10:40;6.88;;;1.70;;
65535;SDS011;52145;49.342;9.116;2022-10-16T12:18:41;2.25;;;1.02;;
65535;SDS011;52145;49.342;9.116;2022-10-16T12:21:09;2.55;;;0.90;;
65535;SDS011;52145;49.342;9.116;2022-10-16T12:23:39;3.30;;;1.15;;
65535;SDS011;52145;49.342;9.116;2022-10-16T12:26:26;2.33;;;1.50;;
65535;SDS011;52145;49.342;9.116;2022-10-16T12:29:08;4.18;;;1.58;;
65535;SDS011;52145;49.342;9.116;2022-10-16T12:31:48;7.45;;;1.70;;
65535;SDS011;52145;49.342;9.116;2022-10-16T12:37:08;2.58;;;1.45;;
65535;SDS011;52145;49.342;9.116;2022-10-16T12:39:36;1.92;;;1.30;;
65535;SDS011;52145;49.342;9.116;2022-10-16T12:42:03;4.30;;;1.83;;
65535;SDS011;52145;49.342;9.116;2022-10-16T12:44:32;1.58;;;1.10;;
65535;SDS011;52145;49.342;9.116;2022-10-16T12:46:59;7.38;;;1.33;;
65535;SDS011;52145;49.342;9.116;2022-10-16T12:54:35;3.83;;;1.65;;
65535;SDS011;52145;49.342;9.116;2022-10-16T12:57:05;5.85;;;1.13;;
65535;SDS011;52145;49.342;9.116;2022-10-16T13:08:26;2.85;;;1.20;;
65535;SDS011;52145;49.342;9.116;2022-10-16T13:10:59;1.55;;;1.13;;
65535;SDS011;52145;49.342;9.116;2022-10-16T13:13:41;5.45;;;1.30;;
65535;SDS011;52145;49.342;9.116;2022-10-16T13:22:17;2.03;;;1.05;;
65535;SDS011;52145;49.342;9.116;2022-10-16T13:30:12;1.50;;;1.02;;
65535;SDS011;52145;49.342;9.116;2022-10-16T13:32:43;2.10;;;1.30;;
65535;SDS011;52145;49.342;9.116;2022-10-16T13:35:18;1.95;;;1.27;;
65535;SDS011;52145;49.342;9.116;2022-10-16T13:37:45;5.40;;;1.50;;
65535;SDS011;52145;49.342;9.116;2022-10-16T13:40:21;5.30;;;1.60;;
65535;SDS011;52145;49.342;9.116;2022-10-16T13:42:49;3.08;;;1.45;;
65535;SDS011;52145;49.342;9.116;2022-10-16T13:45:22;7.75;;;1.80;;
65535;SDS011;52145;49.342;9.116;2022-10-16T13:47:50;5.25;;;1.65;;
65535;SDS011;52145;49.342;9.116;2022-10-16T13:50:26;7.55;;;1.70;;
65535;SDS011;52145;49.342;9.116;2022-10-16T13:52:51;4.60;;;1.92;;
65535;SDS011;52145;49.342;9.116;2022-10-16T13:55:17;2.97;;;1.50;;
65535;SDS011;52145;49.342;9.116;2022-10-16T13:57:43;2.67;;;1.70;;
65535;SDS011;52145;49.342;9.116;2022-10-16T14:00:23;7.15;;;1.90;;
65535;SDS011;52145;49.342;9.116;2022-10-16T14:03:15;5.25;;;1.77;;
65535;SDS011;52145;49.342;9.116;2022-10-16T14:05:48;3.28;;;1.45;;
65535;SDS011;52145;49.342;9.116;2022-10-16T14:08:16;6.45;;;1.85;;
65535;SDS011;52145;49.342;9.116;2022-10-16T14:10:42;4.55;;;1.85;;
65535;SDS011;52145;49.342;9.116;2022-10-16T14:13:13;2.33;;;1.10;;
65535;SDS011;52145;49.342;9.116;2022-10-16T14:15:45;3.45;;;1.30;;
65535;SDS011;52145;49.342;9.116;2022-10-16T14:18:18;3.25;;;1.27;;
65535;SDS011;52145;49.342;9.116;2022-10-16T14:20:46;4.40;;;1.35;;
65535;SDS011;52145;49.342;9.116;2022-10-16T14:26:05;5.70;;;2.45;;
65535;SDS011;52145;49.342;9.116;2022-10-16T14:28:38;8.57;;;4.30;;
65535;SDS011;52145;49.342;9.116;2022-10-16T14:31:23;8.38;;;3.05;;
65535;SDS011;52145;49.342;9.116;2022-10-16T14:33:50;5.32;;;2.00;;
65535;SDS011;52145;49.342;9.116;2022-10-16T14:36:16;6.93;;;1.90;;
65535;SDS011;52145;49.342;9.116;2022-10-16T14:41:21;3.30;;;1.67;;
65535;SDS011;52145;49.342;9.116;2022-10-16T14:43:49;5.80;;;2.05;;
65535;SDS011;52145;49.342;9.116;2022-10-16T14:46:21;4.93;;;1.95;;
65535;SDS011;52145;49.342;9.116;2022-10-16T14:48:56;2.53;;;1.30;;
65535;SDS011;52145;49.342;9.116;2022-10-16T14:51:25;2.67;;;1.40;;
65535;SDS011;52145;49.342;9.116;2022-10-16T14:53:51;5.72;;;1.67;;
65535;SDS011;52145;49.342;9.116;2022-10-16T14:56:24;4.40;;;1.52;;
65535;SDS011;52145;49.342;9.116;2022-10-16T14:58:53;4.22;;;1.60;;
65535;SDS011;52145;49.342;9.116;2022-10-16T15:01:20;6.85;;;2.58;;
65535;SDS011;52145;49.342;9.116;2022-10-16T15:03:46;6.28;;;2.50;;
65535;SDS011;52145;49.342;9.116;2022-10-16T15:06:12;6.65;;;2.20;;
65535;SDS011;52145;49.342;9.116;2022-10-16T15:08:39;4.82;;;2.25;;
65535;SDS011;52145;49.342;9.116;2022-10-16T15:11:05;8.27;;;1.75;;
65535;SDS011;52145;49.342;9.116;2022-10-16T15:13:42;7.93;;;1.90;;
65535;SDS011;52145;49.342;9.116;2022-10-16T15:16:10;7.40;;;1.70;;
65535;SDS011;52145;49.342;9.116;2022-10-16T15:18:37;5.85;;;2.10;;
65535;SDS011;52145;49.342;9.116;2022-10-16T15:21:03;5.90;;;2.17;;
65535;SDS011;52145;49.342;9.116;2022-10-16T15:23:28;5.13;;;1.83;;
65535;SDS011;52145;49.342;9.116;2022-10-16T15:25:54;7.78;;;2.08;;
65535;SDS011;52145;49.342;9.116;2022-10-16T15:28:21;4.15;;;1.70;;
65535;SDS011;52145;49.342;9.116;2022-10-16T15:30:49;6.43;;;2.25;;
65535;SDS011;52145;49.342;9.116;2022-10-16T15:33:17;7.30;;;1.77;;
65535;SDS011;52145;49.342;9.116;2022-10-16T15:35:51;6.13;;;1.75;;
65535;SDS011;52145;49.342;9.116;2022-10-16T15:38:18;4.20;;;1.85;;
65535;SDS011;52145;49.342;9.116;2022-10-16T15:40:45;6.47;;;1.92;;
65535;SDS011;52145;49.342;9.116;2022-10-16T15:43:12;9.20;;;2.20;;
65535;SDS011;52145;49.342;9.116;2022-10-16T15:45:37;6.47;;;1.70;;
65535;SDS011;52145;49.342;9.116;2022-10-16T15:48:03;11.10;;;2.05;;
65535;SDS011;52145;49.342;9.116;2022-10-16T15:50:29;5.93;;;1.60;;
65535;SDS011;52145;49.342;9.116;2022-10-16T15:52:55;4.97;;;1.70;;
65535;SDS011;52145;49.342;9.116;2022-10-16T15:55:21;7.00;;;1.85;;
65535;SDS011;52145;49.342;9.116;2022-10-16T15:57:46;3.88;;;1.80;;
65535;SDS011;52145;49.342;9.116;2022-10-16T16:00:13;3.67;;;1.60;;
65535;SDS011;52145;49.342;9.116;2022-10-16T16:02:40;6.60;;;1.52;;
65535;SDS011;52145;49.342;9.116;2022-10-16T16:05:07;7.70;;;1.92;;
65535;SDS011;52145;49.342;9.116;2022-10-16T16:07:34;7.03;;;1.92;;
65535;SDS011;52145;49.342;9.116;2022-10-16T16:10:00;6.95;;;1.70;;
65535;SDS011;52145;49.342;9.116;2022-10-16T16:12:26;3.15;;;1.73;;
65535;SDS011;52145;49.342;9.116;2022-10-16T16:14:51;6.53;;;1.80;;
65535;SDS011;52145;49.342;9.116;2022-10-16T16:17:17;6.22;;;2.20;;
65535;SDS011;52145;49.342;9.116;2022-10-16T16:19:43;8.55;;;2.28;;
65535;SDS011;52145;49.342;9.116;2022-10-16T16:22:08;6.05;;;1.95;;
65535;SDS011;52145;49.342;9.116;2022-10-16T16:24:34;8.65;;;2.83;;
65535;SDS011;52145;49.342;9.116;2022-10-16T16:26:59;9.65;;;2.50;;
65535;SDS011;52145;49.342;9.116;2022-10-16T16:29:25;10.45;;;3.15;;
65535;SDS011;52145;49.342;9.116;2022-10-16T16:31:50;4.95;;;2.00;;
65535;SDS011;52145;49.342;9.116;2022-10-16T16:34:22;9.60;;;2.55;;
65535;SDS011;52145;49.342;9.116;2022-10-16T16:36:49;6.57;;;2.80;;
65535;SDS011;52145;49.342;9.116;2022-10-16T16:39:14;5.57;;;2.78;;
65535;SDS011;52145;49.342;9.116;2022-10-16T16:41:40;9.30;;;3.10;;
65535;SDS011;52145;49.342;9.116;2022-10-16T16:44:06;5.90;;;2.70;;
65535;SDS011;52145;49.342;9.116;2022-10-16T16:46:33;6.43;;;2.53;;
65535;SDS011;52145;49.342;9.116;2022-10-16T16:48:59;8.65;;;2.95;;
65535;SDS011;52145;49.342;9.116;2022-10-16T16:51:25;8.75;;;2.55;;
65535;SDS011;52145;49.342;9.116;2022-10-16T16:53:52;8.77;;;2.70;;
65535;SDS011;52145;49.342;9.116;2022-10-16T16:56:19;10.50;;;3.22;;
65535;SDS011;52145;49.342;9.116;2022-10-16T16:58:45;10.93;;;3.30;;
65535;SDS011;52145;49.342;9.116;2022-10-16T17:01:11;9.57;;;3.05;;
65535;SDS011;52145;49.342;9.116;2022-10-16T17:03:37;11.88;;;2.40;;
65535;SDS011;52145;49.342;9.116;2022-10-16T17:06:04;10.55;;;3.03;;
65535;SDS011;52145;49.342;9.116;2022-10-16T17:08:31;12.57;;;2.85;;
65535;SDS011;52145;49.342;9.116;2022-10-16T17:10:57;7.32;;;2.20;;
65535;SDS011;52145;49.342;9.116;2022-10-16T17:13:23;9.05;;;2.92;;
65535;SDS011;52145;49.342;9.116;2022-10-16T17:15:51;9.85;;;2.53;;
65535;SDS011;52145;49.342;9.116;2022-10-16T17:18:18;5.10;;;2.30;;
65535;SDS011;52145;49.342;9.116;2022-10-16T17:20:44;12.15;;;3.10;;
65535;SDS011;52145;49.342;9.116;2022-10-16T17:23:10;8.20;;;3.15;;
65535;SDS011;52145;49.342;9.116;2022-10-16T17:25:37;6.82;;;3.22;;
65535;SDS011;52145;49.342;9.116;2022-10-16T17:28:03;8.65;;;3.10;;
65535;SDS011;52145;49.342;9.116;2022-10-16T17:30:29;6.95;;;2.70;;
65535;SDS011;52145;49.342;9.116;2022-10-16T17:32:55;8.85;;;2.80;;
65535;SDS011;52145;49.342;9.116;2022-10-16T17:35:20;9.65;;;2.92;;
65535;SDS011;52145;49.342;9.116;2022-10-16T17:37:46;8.35;;;2.63;;
65535;SDS011;52145;49.342;9.116;2022-10-16T17:40:11;5.20;;;2.35;;
65535;SDS011;52145;49.342;9.116;2022-10-16T17:42:37;8.15;;;3.17;;
65535;SDS011;52145;49.342;9.116;2022-10-16T17:45:02;8.40;;;3.03;;
65535;SDS011;52145;49.342;9.116;2022-10-16T17:47:28;7.85;;;3.05;;
65535;SDS011;52145;49.342;9.116;2022-10-16T17:49:54;9.73;;;2.70;;
65535;SDS011;52145;49.342;9.116;2022-10-16T17:52:21;11.70;;;3.65;;
65535;SDS011;52145;49.342;9.116;2022-10-16T17:54:49;7.38;;;3.10;;
65535;SDS011;52145;49.342;9.116;2022-10-16T17:57:15;6.43;;;2.25;;
65535;SDS011;52145;49.342;9.116;2022-10-16T17:59:41;11.77;;;2.25;;
65535;SDS011;52145;49.342;9.116;2022-10-16T18:02:08;16.80;;;2.97;;
65535;SDS011;52145;49.342;9.116;2022-10-16T18:04:34;11.15;;;2.83;;
65535;SDS011;52145;49.342;9.116;2022-10-16T18:07:00;7.90;;;2.22;;
65535;SDS011;52145;49.342;9.116;2022-10-16T18:09:26;7.90;;;2.60;;
65535;SDS011;52145;49.342;9.116;2022-10-16T18:11:52;7.22;;;3.10;;
65535;SDS011;52145;49.342;9.116;2022-10-16T18:14:24;7.28;;;2.33;;
65535;SDS011;52145;49.342;9.116;2022-10-16T18:16:53;13.27;;;4.00;;
65535;SDS011;52145;49.342;9.116;2022-10-16T18:19:19;9.65;;;2.45;;
65535;SDS011;52145;49.342;9.116;2022-10-16T18:21:45;11.15;;;3.20;;
65535;SDS011;52145;49.342;9.116;2022-10-16T18:24:13;11.63;;;3.35;;
65535;SDS011;52145;49.342;9.116;2022-10-16T18:26:39;5.60;;;2.65;;
65535;SDS011;52145;49.342;9.116;2022-10-16T18:29:05;6.65;;;2.03;;
65535;SDS011;52145;49.342;9.116;2022-10-16T18:31:31;13.90;;;3.67;;
65535;SDS011;52145;49.342;9.116;2022-10-16T18:33:58;16.85;;;9.93;;
65535;SDS011;52145;49.342;9.116;2022-10-16T18:36:25;20.30;;;8.63;;
65535;SDS011;52145;49.342;9.116;2022-10-16T18:38:56;7.53;;;3.70;;
65535;SDS011;52145;49.342;9.116;2022-10-16T18:41:24;12.73;;;3.63;;
65535;SDS011;52145;49.342;9.116;2022-10-16T18:43:50;8.95;;;3.10;;
65535;SDS011;52145;49.342;9.116;2022-10-16T18:46:20;10.43;;;2.97;;
65535;SDS011;52145;49.342;9.116;2022-10-16T18:48:47;8.85;;;3.25;;
65535;SDS011;52145;49.342;9.116;2022-10-16T18:51:21;10.45;;;3.00;;
65535;SDS011;52145;49.342;9.116;2022-10-16T18:53:50;8.40;;;3.00;;
65535;SDS011;52145;49.342;9.116;2022-10-16T18:56:18;15.25;;;3.00;;
65535;SDS011;52145;49.342;9.116;2022-10-16T18:58:45;7.93;;;3.03;;
65535;SDS011;52145;49.342;9.116;2022-10-16T19:01:13;17.15;;;3.90;;
65535;SDS011;52145;49.342;9.116;2022-10-16T19:03:40;5.47;;;2.97;;
65535;SDS011;52145;49.342;9.116;2022-10-16T19:06:07;8.05;;;3.17;;
65535;SDS011;52145;49.342;9.116;2022-10-16T19:08:35;5.50;;;2.80;;
65535;SDS011;52145;49.342;9.116;2022-10-16T19:11:07;9.25;;;3.10;;
65535;SDS011;52145;49.342;9.116;2022-10-16T19:13:35;9.20;;;3.67;;
65535;SDS011;52145;49.342;9.116;2022-10-16T19:16:01;7.43;;;3.70;;
65535;SDS011;52145;49.342;9.116;2022-10-16T19:18:28;8.82;;;3.88;;
65535;SDS011;52145;49.342;9.116;2022-10-16T19:21:01;9.90;;;4.53;;
65535;SDS011;52145;49.342;9.116;2022-10-16T19:23:27;8.23;;;4.18;;
65535;SDS011;52145;49.342;9.116;2022-10-16T19:25:53;9.90;;;3.38;;
65535;SDS011;52145;49.342;9.116;2022-10-16T19:28:19;7.63;;;3.17;;
65535;SDS011;52145;49.342;9.116;2022-10-16T19:30:44;12.15;;;3.00;;
65535;SDS011;52145;49.342;9.116;2022-10-16T19:33:10;12.18;;;3.40;;
65535;SDS011;52145;49.342;9.116;2022-10-16T19:35:36;13.52;;;3.30;;
65535;SDS011;52145;49.342;9.116;2022-10-16T19:38:01;14.98;;;3.40;;
65535;SDS011;52145;49.342;9.116;2022-10-16T19:40:27;9.57;;;2.90;;
65535;SDS011;52145;49.342;9.116;2022-10-16T19:42:53;5.50;;;2.67;;
65535;SDS011;52145;49.342;9.116;2022-10-16T19:45:18;7.40;;;3.00;;
65535;SDS011;52145;49.342;9.116;2022-10-16T19:47:45;12.65;;;3.30;;
65535;SDS011;52145;49.342;9.116;2022-10-16T19:50:10;11.80;;;3.38;;
65535;SDS011;52145;49.342;9.116;2022-10-16T19:52:36;9.90;;;2.90;;
65535;SDS011;52145;49.342;9.116;2022-10-16T19:55:03;8.75;;;3.22;;
65535;SDS011;52145;49.342;9.116;2022-10-16T19:57:34;6.75;;;3.08;;
65535;SDS011;52145;49.342;9.116;2022-10-16T20:00:00;8.15;;;3.35;;
65535;SDS011;52145;49.342;9.116;2022-10-16T20:02:28;7.13;;;3.63;;
65535;SDS011;52145;49.342;9.116;2022-10-16T20:04:54;13.93;;;3.97;;
65535;SDS011;52145;49.342;9.116;2022-10-16T20:07:19;9.77;;;3.38;;
65535;SDS011;52145;49.342;9.116;2022-10-16T20:09:46;10.15;;;3.67;;
65535;SDS011;52145;49.342;9.116;2022-10-16T20:12:12;14.05;;;3.72;;
65535;SDS011;52145;49.342;9.116;2022-10-16T20:14:37;10.63;;;4.18;;
65535;SDS011;52145;49.342;9.116;2022-10-16T20:17:03;10.07;;;3.20;;
